Aviation Digital Data Service (ADDS)

Output produced by METARs form (0400 UTC 24 January 2019)
found at http://www.aviationweather.gov/metar/data/
 
Forecast for: VERC (RANCHI , IN)
Text: TAF VERC 240200Z 2403/2412 00000KT 1200 MIFG FEW100
Forecast period: 0300 to 0400 UTC 24 January 2019
Forecast type: FROM: standard forecast or significant change
Winds: calm
Visibility: 0.75 miles (1.21 km)
Ceiling: at least 12,000 feet AGL
Clouds: few clouds at 10000 feet AGL
Weather: MIFG  (shallow fog)
Text: BECMG 2404/2406 10003KT 2500 HZ
Forecast period: 0400 to 1200 UTC 24 January 2019
Forecast type: BECOMING: Conditions expected to become as follows by 0600 UTC 24 January 2019
Winds: from the E (100 degrees) at 3 MPH (3 knots; 1.5 m/s)
Visibility: 1.55 miles (2.49 km)
Ceiling: at least 12,000 feet AGL
Clouds: few clouds at 10000 feet AGL
Weather: HZ  (haze)